Latest Weather Observations for Yanakie

IDV60801

Issued at 9:32 pm EDT Monday 16 January 2017 (issued every 30 minutes, with the page automatically refreshed every 10 minutes)

About weather observations | Map of weather stations | Latest weather observations for VIC | Other Formats
Station Details ID: 085301 Name: YANAKIE Lat: -38.81 Lon: 146.19 Height: 13.3 m
Data from the previous 72 hours. | See also: Recent months at Yanakie
Date/Time
EDT
Temp
°C
App
Temp
°C
Dew
Point
°C
Rel
Hum
%
Delta-T
°C
Wind Press
QNH
hPa
Press
MSL
hPa
Rain since
9am
mm
Dir  Spd
km/h
Gust
km/h
Spd
kts
Gust
kts
16/09:30pm 18.4 18.0 15.1 81 1.9 E 11 15 6 8 1011.1 1011.0 0.0
16/09:00pm 18.3 17.1 15.0 81 1.9 ENE 15 22 8 12 1011.3 1011.2 0.0
16/08:30pm 18.6 17.0 14.9 79 2.2 ENE 17 22 9 12 1011.3 1011.2 0.0
16/08:00pm 19.7 18.4 14.9 74 2.8 ENE 15 20 8 11 1011.3 1011.2 0.0
16/07:30pm 20.6 19.3 14.9 70 3.4 ENE 15 20 8 11 1011.5 1011.4 0.0
16/07:00pm 21.3 20.2 15.4 69 3.5 ENE 15 22 8 12 1011.6 1011.5 0.0
16/06:30pm 22.7 22.1 14.5 60 4.8 NE 11 17 6 9 1011.4 1011.3 0.0
16/06:00pm 23.4 24.2 14.9 59 5.1 NNE 4 11 2 6 1011.6 1011.5 0.0
16/05:30pm 24.0 23.9 13.2 50 6.3 WSW 6 9 3 5 1011.8 1011.7 0.0
16/05:00pm 23.0 22.3 13.2 54 5.7 SW 9 13 5 7 1012.3 1012.2 0.0
16/04:30pm 22.5 21.7 13.0 55 5.5 SSW 9 15 5 8 1012.5 1012.4 0.0
16/04:00pm 22.1 20.7 13.5 58 5.0 SW 13 17 7 9 1013.0 1012.9 0.0
16/03:30pm 22.4 21.1 13.7 58 5.1 SW 13 19 7 10 1013.2 1013.1 0.0
16/03:00pm 21.4 19.1 13.1 59 4.7 SSW 17 24 9 13 1013.5 1013.4 0.0
16/02:30pm 21.7 19.7 13.9 61 4.5 SSW 17 26 9 14 1013.8 1013.7 0.0
16/02:00pm 20.7 18.0 12.9 61 4.4 SSW 19 26 10 14 1014.1 1014.0 0.0
16/01:30pm 20.7 17.8 12.4 59 4.7 SSW 19 24 10 13 1014.5 1014.4 0.0
16/01:00pm 21.0 17.7 12.7 59 4.7 SSW 22 30 12 16 1014.8 1014.7 0.0
16/12:30pm 21.6 19.6 12.7 57 5.1 SW 15 20 8 11 1014.4 1014.3 0.0
16/12:00pm 20.7 19.4 12.4 59 4.7 SW 11 15 6 8 1014.5 1014.4 0.0
16/11:30am 20.5 18.4 12.5 60 4.5 SW 15 22 8 12 1015.2 1015.1 0.0
16/11:00am 20.3 19.0 12.5 61 4.4 SW 11 17 6 9 1015.4 1015.3 0.0
16/10:30am 19.0 17.8 11.6 62 4.1 SW 9 20 5 11 1015.7 1015.6 0.0
16/10:00am 19.4 17.9 11.9 62 4.2 W 11 20 6 11 1015.9 1015.8 0.0
16/09:30am 18.3 17.0 11.1 63 3.9 W 9 19 5 10 1016.0 1015.9 0.0
16/09:00am 17.7 15.9 10.8 64 3.7 WNW 11 17 6 9 1016.1 1016.0 0.0
16/08:30am 16.8 15.3 10.6 67 3.3 WNW 9 15 5 8 1016.2 1016.1 0.0
16/08:00am 16.1 15.0 10.8 71 2.8 NW 7 11 4 6 1016.2 1016.1 0.0
16/07:30am 15.3 14.2 10.7 74 2.4 NNW 7 11 4 6 1015.9 1015.8 0.0
16/07:00am 14.5 13.4 10.5 77 2.1 NNW 7 11 4 6 1015.8 1015.7 0.0
16/06:30am 14.4 13.3 10.6 78 2.0 NW 7 11 4 6 1015.6 1015.5 0.0
16/06:00am 14.3 13.2 10.7 79 1.9 NW 7 9 4 5 1015.6 1015.5 0.0
16/05:30am 14.1 13.2 10.7 80 1.8 NNW 6 7 3 4 1015.4 1015.3 0.0
16/05:00am 14.0 13.5 10.6 80 1.8 NNW 4 6 2 3 1015.3 1015.2 0.0
16/04:30am 13.8 12.9 10.8 82 1.6 NW 6 7 3 4 1015.2 1015.1 0.0
16/04:00am 13.7 13.2 10.7 82 1.6 NNW 4 6 2 3 1014.9 1014.8 0.0
16/03:30am 13.6 13.1 10.6 82 1.6 NNW 4 4 2 2 1015.1 1015.0 0.0
16/03:00am 13.7 12.7 10.3 80 1.8 NW 6 9 3 5 1015.2 1015.1 0.0
16/02:30am 13.8 12.6 10.4 80 1.8 NW 7 9 4 5 1015.7 1015.6 0.0
16/02:00am 13.7 12.6 10.5 81 1.7 NW 7 9 4 5 1016.1 1016.0 0.0
16/01:30am 13.6 12.1 10.6 82 1.6 WNW 9 11 5 6 1016.4 1016.3 0.0
16/01:00am 13.3 11.8 10.7 84 1.4 WNW 9 11 5 6 1016.7 1016.6 0.0
16/12:30am 12.7 11.3 10.8 88 1.0 WNW 9 9 5 5 1017.0 1016.9 0.0
16/12:00am 11.9 10.8 10.1 89 0.9 NW 6 7 3 4 1017.1 1017.0 0.0
 
Date/Time
EDT
Temp
°C
App
Temp
°C
Dew
Point
°C
Rel
Hum
%
Delta-T
°C
Wind Press
QNH
hPa
Press
MSL
hPa
Rain since
9am
mm
Dir  Spd
km/h
Gust
km/h
Spd
kts
Gust
kts
15/11:30pm 10.7 9.3 8.8 88 0.9 NW 6 6 3 3 1017.1 1017.0 0.0
15/11:00pm 10.0 8.2 7.8 86 1.1 NW 7 7 4 4 1017.2 1017.1 0.0
15/10:30pm 10.4 8.6 8.0 85 1.2 NW 7 9 4 5 1017.5 1017.4 0.0
15/10:00pm 11.1 9.4 8.5 84 1.3 WNW 7 7 4 4 1017.6 1017.5 0.0
15/09:30pm 12.0 10.4 8.8 81 1.6 WNW 7 9 4 5 1017.6 1017.5 0.0
15/09:00pm 13.4 11.1 8.9 74 2.3 W 11 13 6 7 1017.3 1017.2 0.0
15/08:30pm 14.9 12.3 9.3 69 2.9 WSW 13 17 7 9 1017.1 1017.0 0.0
15/08:00pm 16.1 12.3 9.1 63 3.6 WSW 19 24 10 13 1017.3 1017.2 0.0
15/07:30pm 16.5 12.6 9.4 63 3.7 WSW 20 32 11 17 1017.4 1017.3 0.0
15/07:00pm 16.7 12.5 9.9 64 3.6 WSW 22 30 12 16 1017.3 1017.2 0.0
15/06:30pm 17.1 12.5 9.5 61 4.0 WSW 24 32 13 17 1017.3 1017.2 0.0
15/06:00pm 17.4 12.8 9.6 60 4.1 WSW 24 35 13 19 1017.3 1017.2 0.0
15/05:30pm 17.7 13.4 10.8 64 3.7 WSW 24 32 13 17 1017.5 1017.4 0.0
15/05:00pm 18.1 13.6 10.2 60 4.2 WSW 24 32 13 17 1017.6 1017.5 0.0
15/04:30pm 18.1 13.9 11.0 63 3.8 WSW 24 33 13 18 1017.7 1017.6 0.0
15/04:00pm 18.4 13.4 9.7 57 4.6 WSW 26 35 14 19 1017.8 1017.7 0.0
15/03:30pm 19.7 14.0 9.9 53 5.2 WSW 30 39 16 21 1018.0 1017.9 0.0
15/03:00pm 20.1 15.0 9.1 49 5.8 WSW 26 41 14 22 1018.1 1018.0 0.0
15/02:30pm 19.5 14.8 9.1 51 5.5 WSW 24 35 13 19 1018.0 1017.9 0.0
15/02:00pm 19.0 14.3 9.2 53 5.1 WSW 24 35 13 19 1018.2 1018.1 0.0
15/01:30pm 18.4 13.5 10.0 58 4.5 SW 26 37 14 20 1018.2 1018.1 0.0
15/01:00pm 18.2 13.3 9.8 58 4.4 WSW 26 33 14 18 1018.3 1018.2 0.0
15/12:30pm 18.3 13.6 9.4 56 4.7 WSW 24 32 13 17 1018.1 1018.0 0.0
15/12:00pm 18.6 14.6 9.1 54 5.0 WSW 20 28 11 15 1018.0 1017.9 0.0
15/11:30am 18.1 14.2 9.5 57 4.5 WSW 20 26 11 14 1018.1 1018.0 0.0
15/11:00am 17.4 13.0 8.8 57 4.4 WSW 22 33 12 18 1018.3 1018.2 0.0
15/10:30am 17.0 12.1 8.4 57 4.4 WSW 24 33 13 18 1018.2 1018.1 0.0
15/10:00am 16.4 11.9 8.4 59 4.1 WSW 22 32 12 17 1018.2 1018.1 0.0
15/09:30am 16.5 12.1 9.0 61 3.9 WSW 22 30 12 16 1017.9 1017.8 0.0
15/09:00am 16.3 12.1 8.3 59 4.1 W 20 28 11 15 1017.6 1017.5 0.8
15/08:30am 15.9 11.9 8.4 61 3.8 WSW 19 28 10 15 1017.4 1017.3 0.8
15/08:00am 15.4 12.0 9.1 66 3.2 W 17 22 9 12 1017.2 1017.1 0.8
15/07:30am 15.1 11.6 8.8 66 3.2 W 17 22 9 12 1016.9 1016.8 0.8
15/07:00am 15.0 10.9 8.0 63 3.5 W 19 24 10 13 1016.7 1016.6 0.8
15/06:30am 15.0 9.8 7.3 60 3.8 WSW 24 32 13 17 1016.3 1016.2 0.8
15/06:00am 14.9 10.9 8.2 64 3.4 WSW 19 28 10 15 1016.1 1016.0 0.8
15/05:30am 15.0 10.9 8.5 65 3.3 WSW 20 28 11 15 1015.7 1015.6 0.8
15/05:00am 15.1 11.4 8.1 63 3.5 W 17 26 9 14 1015.4 1015.3 0.8
15/04:30am 15.1 10.6 6.9 58 4.0 WSW 20 28 11 15 1015.2 1015.1 0.8
15/04:00am 15.1 10.4 7.6 61 3.7 WSW 22 30 12 16 1014.9 1014.8 0.8
15/03:30am 14.9 10.1 7.2 60 3.8 W 22 32 12 17 1014.9 1014.8 0.8
15/03:00am 15.1 10.1 7.9 62 3.6 WSW 24 32 13 17 1014.9 1014.8 0.8
15/02:30am 15.2 9.3 7.5 60 3.8 WSW 28 37 15 20 1014.9 1014.8 0.8
15/02:00am 15.4 9.5 7.7 60 3.8 WSW 28 39 15 21 1015.0 1014.9 0.8
15/01:30am 15.3 9.7 7.1 58 4.0 WSW 26 39 14 21 1015.1 1015.0 0.8
15/01:00am 15.2 9.9 7.0 58 4.0 WSW 24 35 13 19 1015.1 1015.0 0.8
15/12:30am 15.1 8.1 6.1 55 4.3 WSW 32 43 17 23 1015.2 1015.1 0.8
15/12:00am 15.2 8.9 7.3 59 3.9 WSW 30 44 16 24 1014.9 1014.8 0.8
 
Date/Time
EDT
Temp
°C
App
Temp
°C
Dew
Point
°C
Rel
Hum
%
Delta-T
°C
Wind Press
QNH
hPa
Press
MSL
hPa
Rain since
9am
mm
Dir  Spd
km/h
Gust
km/h
Spd
kts
Gust
kts
14/11:30pm 15.7 8.2 8.0 60 3.9 WSW 37 48 20 26 1014.5 1014.4 0.6
14/11:00pm 15.8 8.7 8.1 60 3.9 WSW 35 44 19 24 1014.2 1014.1 0.6
14/10:30pm 15.7 8.9 7.7 59 4.0 WSW 33 48 18 26 1014.0 1013.9 0.6
14/10:00pm 16.0 9.1 9.0 63 3.6 WSW 35 48 19 26 1013.8 1013.7 0.6
14/09:36pm 15.8 9.0 9.2 65 3.4 WSW 35 56 19 30 1013.4 1013.3 0.6
14/09:30pm 15.8 8.8 9.9 68 3.1 WSW 37 50 20 27 1013.3 1013.2 0.6
14/09:00pm 15.5 7.8 10.3 71 2.7 WSW 41 56 22 30 1012.8 1012.7 0.6
14/08:30pm 15.9 7.8 10.0 68 3.1 WSW 43 67 23 36 1012.5 1012.4 0.6
14/08:23pm 16.0 7.6 9.7 66 3.3 WSW 44 67 24 36 1012.3 1012.2 0.6
14/08:00pm 16.2 8.1 10.7 70 2.9 WSW 44 61 24 33 1011.8 1011.7 0.6
14/07:53pm 16.4 8.8 10.5 68 3.1 WSW 41 61 22 33 1011.7 1011.6 0.6
14/07:30pm 17.0 9.1 11.3 69 3.1 WSW 44 57 24 31 1011.3 1011.2 0.6
14/07:09pm 17.6 8.7 10.5 63 3.8 W 48 67 26 36 1010.8 1010.7 0.6
14/07:00pm 17.7 7.5 10.1 61 4.0 W 54 69 29 37 1010.6 1010.5 0.6
14/06:40pm 18.1 9.2 10.5 61 4.1 W 48 74 26 40 1010.4 1010.3 0.6
14/06:30pm 17.9 7.6 11.0 64 3.7 W 56 69 30 37 1010.3 1010.2 0.6
14/06:00pm 18.4 8.8 10.8 61 4.1 W 52 69 28 37 1009.9 1009.8 0.6
14/05:45pm 18.3 9.2 11.4 64 3.8 W 50 70 27 38 1009.8 1009.7 0.6
14/05:30pm 18.2 8.8 10.3 60 4.2 W 50 69 27 37 1009.7 1009.6 0.6
14/05:10pm 19.6 10.2 11.6 60 4.4 WSW 52 70 28 38 1009.6 1009.5 0.6
14/05:00pm 18.6 8.6 10.9 61 4.2 W 54 70 29 38 1009.5 1009.4 0.6
14/04:30pm 18.7 9.9 12.2 66 3.6 W 50 69 27 37 1009.2 1009.1 0.6
14/04:00pm 18.2 9.5 12.4 69 3.2 W 50 70 27 38 1009.1 1009.0 0.6
14/03:33pm 17.4 9.8 12.5 73 2.7 W 44 63 24 34 1008.8 1008.7 0.6
14/03:30pm 16.6 9.2 13.1 80 2.0 W 44 59 24 32 1008.9 1008.8 0.6
14/03:01pm 19.3 11.8 12.6 65 3.8 W 44 65 24 35 1008.4 1008.3 0.6
14/03:00pm 19.3 11.8 12.8 66 3.7 W 44 57 24 31 1008.4 1008.3 0.6
14/02:30pm 17.8 9.7 13.1 74 2.6 W 48 69 26 37 1007.9 1007.8 0.6
14/02:00pm 15.8 7.0 13.5 86 1.3 W 52 72 28 39 1007.5 1007.4 0.6
14/01:33pm 19.3 11.7 12.3 64 3.9 W 44 65 24 35 1007.3 1007.2 0.4
14/01:30pm 18.9 11.4 12.6 67 3.5 W 44 56 24 30 1007.2 1007.1 0.4
14/01:19pm 15.8 5.8 12.2 79 2.0 W 56 80 30 43 1007.4 1007.3 0.4
14/01:16pm 16.4 6.4 12.0 75 2.4 W 56 80 30 43 1007.3 1007.2 0.4
14/01:03pm 16.8 9.1 14.4 86 1.4 W 48 67 26 36 1007.1 1007.0 0.4
14/01:00pm 15.8 6.7 13.6 87 1.2 W 54 69 29 37 1007.1 1007.0 0.4
14/12:33pm 16.8 7.4 11.5 71 2.9 W 52 70 28 38 1006.7 1006.6 0.4
14/12:30pm 16.1 6.4 11.7 75 2.4 W 54 70 29 38 1006.7 1006.6 0.4
14/12:02pm 18.4 10.9 12.8 70 3.1 W 44 65 24 35 1006.2 1006.1 0.4
14/12:00pm 18.1 10.9 13.0 72 2.9 W 43 56 23 30 1006.2 1006.1 0.4
14/11:30am 15.3 6.8 13.3 88 1.1 W 50 74 27 40 1006.1 1006.0 0.4
14/11:24am 15.7 8.9 13.0 84 1.5 W 41 69 22 37 1006.0 1005.9 0.4
14/11:00am 17.5 12.0 12.6 73 2.7 WNW 33 46 18 25 1005.5 1005.4 0.0
14/10:47am 17.2 11.4 12.7 75 2.5 WNW 35 57 19 31 1005.5 1005.4 0.0
14/10:30am 15.4 8.0 12.5 83 1.6 WNW 43 59 23 32 1005.4 1005.3 0.0
14/10:00am 17.7 8.9 10.8 64 3.7 W 48 70 26 38 1005.0 1004.9 0.0
14/09:51am 17.2 9.6 11.7 70 3.0 W 43 61 23 33 1005.1 1005.0 0.0
14/09:30am 16.6 9.0 11.7 73 2.7 W 43 57 23 31 1004.7 1004.6 0.0
14/09:00am 16.0 6.7 10.7 71 2.8 W 50 74 27 40 1004.9 1004.8 12.2
14/08:44am 17.4 9.2 9.8 61 4.0 W 43 65 23 35 1004.3 1004.2 12.2
14/08:30am 16.9 9.7 10.7 67 3.3 W 39 56 21 30 1004.3 1004.2 12.2
14/08:01am 16.1 10.4 11.3 73 2.6 WNW 32 50 17 27 1003.9 1003.8 12.2
14/08:00am 16.1 10.5 11.5 74 2.5 WNW 32 46 17 25 1003.9 1003.8 12.2
14/07:30am 15.7 10.7 10.9 73 2.6 WNW 28 43 15 23 1003.4 1003.3 12.2
14/07:00am 15.4 9.0 10.6 73 2.5 WNW 35 48 19 26 1003.0 1002.9 12.2
14/06:30am 15.0 8.8 10.0 72 2.6 WNW 33 46 18 25 1002.7 1002.6 12.2
14/06:00am 15.2 10.0 10.4 73 2.5 WNW 28 39 15 21 1002.3 1002.2 12.2
14/05:30am 15.1 9.5 10.1 72 2.6 WNW 30 46 16 25 1002.2 1002.1 12.2
14/05:00am 16.0 11.2 10.3 69 3.0 WNW 26 37 14 20 1002.0 1001.9 12.2
14/04:46am 15.9 10.7 10.4 70 2.9 WNW 28 48 15 26 1001.8 1001.7 12.2
14/04:30am 15.4 11.4 10.6 73 2.5 NW 22 39 12 21 1001.8 1001.7 12.2
14/04:00am 16.6 10.1 10.5 67 3.3 W 35 54 19 29 1001.6 1001.5 12.2
14/03:31am 16.6 10.4 10.0 65 3.5 WNW 33 56 18 30 1001.4 1001.3 12.2
14/03:30am 16.5 10.6 10.4 67 3.2 WNW 32 46 17 25 1001.4 1001.3 12.2
14/03:00am 16.2 11.3 11.2 72 2.7 W 28 39 15 21 1001.6 1001.5 12.2
14/02:30am 16.6 11.6 11.1 70 3.0 W 28 39 15 21 1001.7 1001.6 12.2
14/02:00am 16.4 11.1 11.1 71 2.9 W 30 41 16 22 1001.7 1001.6 12.2
14/01:30am 16.2 11.5 10.5 69 3.0 W 26 35 14 19 1001.9 1001.8 12.2
14/01:00am 16.4 10.2 10.0 66 3.4 W 33 44 18 24 1002.0 1001.9 12.2
14/12:30am 16.2 11.6 9.8 66 3.3 W 24 41 13 22 1002.1 1002.0 12.2
14/12:00am 16.3 11.8 10.2 67 3.2 W 24 33 13 18 1002.2 1002.1 12.2
 
Date/Time
EDT
Temp
°C
App
Temp
°C
Dew
Point
°C
Rel
Hum
%
Delta-T
°C
Wind Press
QNH
hPa
Press
MSL
hPa
Rain since
9am
mm
Dir  Spd
km/h
Gust
km/h
Spd
kts
Gust
kts
13/11:30pm 16.2 12.3 10.7 70 2.9 W 22 37 12 20 1002.1 1002.0 12.2
13/11:00pm 16.3 12.6 11.5 73 2.6 W 22 32 12 17 1002.3 1002.2 12.2
13/10:30pm 16.6 11.9 12.0 74 2.5 W 28 39 15 21 1002.1 1002.0 12.2
13/10:00pm 17.0 11.6 12.1 73 2.7 WSW 32 46 17 25 1001.8 1001.7 12.2

Other Formats:

Comma delimited format used in spreadsheet applications
http://www.bom.gov.au/fwo/IDV60801/IDV60801.94911.axf

JavaScript Object Notation format (JSON) in row-major order
http://www.bom.gov.au/fwo/IDV60801/IDV60801.94911.json